createdAt,value
2022-08-07T04:02:11.075Z,9.76
2022-08-07T04:07:18.592Z,9.92
2022-08-07T04:12:28.879Z,9.79
2022-08-07T04:18:31.348Z,9.73
2022-08-07T04:23:01.294Z,9.80
2022-08-07T04:28:10.283Z,9.82
2022-08-07T04:33:17.841Z,9.88
2022-08-07T04:38:25.221Z,9.96
2022-08-07T04:44:10.177Z,10.20
2022-08-07T04:49:18.272Z,10.40
2022-08-07T04:54:59.546Z,10.65
2022-08-07T05:00:14.528Z,10.88
2022-08-07T05:05:53.569Z,11.09
2022-08-07T05:10:58.449Z,11.34
2022-08-07T05:16:12.427Z,11.44
2022-08-07T05:22:00.461Z,11.79
2022-08-07T05:26:41.810Z,12.08
2022-08-07T05:31:52.768Z,12.31
2022-08-07T05:36:59.209Z,12.66
2022-08-07T05:42:12.118Z,12.88
2022-08-07T05:47:20.043Z,13.14
2022-08-07T05:52:25.540Z,13.53
2022-08-07T05:57:38.156Z,13.81
2022-08-07T06:02:50.412Z,14.04
2022-08-07T06:08:14.333Z,14.30
2022-08-07T06:13:18.282Z,14.62
2022-08-07T06:18:24.351Z,14.89
2022-08-07T06:24:36.777Z,15.21
2022-08-07T06:28:57.963Z,15.57
2022-08-07T06:34:03.910Z,15.93
2022-08-07T06:40:15.907Z,16.30
2022-08-07T06:44:31.057Z,16.68
2022-08-07T06:49:50.785Z,17.00
2022-08-07T06:55:31.895Z,17.42
2022-08-07T07:00:20.878Z,17.82
2022-08-07T07:06:03.844Z,18.23
2022-08-07T07:10:51.683Z,18.59
2022-08-07T07:16:03.318Z,18.95
2022-08-07T07:21:13.689Z,19.40
2022-08-07T07:26:33.380Z,19.81
2022-08-07T07:31:46.953Z,20.33
2022-08-07T07:36:53.920Z,20.77
2022-08-07T07:42:13.287Z,21.25
2022-08-07T07:47:42.998Z,21.88
2022-08-07T07:52:44.127Z,23.02
2022-08-07T07:57:53.814Z,24.88
2022-08-07T08:03:05.489Z,27.13
2022-08-07T08:08:34.463Z,28.97
2022-08-07T08:13:54.383Z,33.47
2022-08-07T08:19:00.451Z,46.08
2022-08-07T08:24:44.900Z,39.24
2022-08-07T08:30:17.285Z,53.67
2022-08-07T08:35:28.835Z,58.56
2022-08-07T08:40:47.924Z,48.21
2022-08-07T08:45:59.624Z,38.50
2022-08-07T08:52:00.792Z,36.26
2022-08-07T08:57:08.332Z,36.08
2022-08-07T09:02:36.515Z,36.07
2022-08-07T09:08:24.434Z,34.77
2022-08-07T09:14:01.983Z,34.39
2022-08-07T09:19:50.865Z,35.57
2022-08-07T09:25:14.806Z,36.44
2022-08-07T09:30:20.659Z,37.67
2022-08-07T09:36:03.158Z,39.02
2022-08-07T09:41:43.040Z,36.11
2022-08-07T09:47:52.127Z,30.77
2022-08-07T09:52:51.818Z,28.37
2022-08-07T09:58:32.608Z,27.40
2022-08-07T10:04:05.250Z,29.55
2022-08-07T10:09:59.308Z,35.04
2022-08-07T10:15:37.906Z,30.32
2022-08-07T10:21:19.598Z,27.67
2022-08-07T10:27:10.226Z,26.92
2022-08-07T10:32:51.348Z,26.62
2022-08-07T10:38:20.923Z,26.93
2022-08-07T10:43:34.723Z,27.89
2022-08-07T10:49:03.344Z,26.78
2022-08-07T10:54:30.356Z,26.24
2022-08-07T11:00:06.516Z,25.98
2022-08-07T11:05:44.814Z,25.81
2022-08-07T11:11:03.884Z,27.68
2022-08-07T11:16:10.136Z,29.93
2022-08-07T11:21:34.349Z,32.77
2022-08-07T11:26:57.313Z,33.36
2022-08-07T11:32:35.830Z,34.14
2022-08-07T11:38:12.832Z,34.65
2022-08-07T11:44:12.682Z,34.35
2022-08-07T11:50:11.261Z,31.43
2022-08-07T11:55:19.065Z,29.82
2022-08-07T12:00:42.572Z,28.97
2022-08-07T12:06:37.511Z,28.89
2022-08-07T12:12:09.040Z,29.13
2022-08-07T12:17:19.811Z,28.52
2022-08-07T12:22:38.505Z,28.02
2022-08-07T12:28:08.445Z,27.65
2022-08-07T12:33:18.896Z,27.57
2022-08-07T12:38:42.822Z,28.94
2022-08-07T12:44:04.281Z,28.02
2022-08-07T12:49:48.439Z,27.87
2022-08-07T12:55:17.473Z,27.52
2022-08-07T13:00:31.324Z,26.97
2022-08-07T13:06:03.356Z,28.80
2022-08-07T13:12:03.425Z,30.12
2022-08-07T13:17:40.004Z,31.06
2022-08-07T13:23:09.796Z,31.07
2022-08-07T13:28:35.687Z,31.04
2022-08-07T13:34:34.616Z,28.83
2022-08-07T13:40:32.668Z,27.37
2022-08-07T13:46:06.196Z,27.60
2022-08-07T13:50:34.238Z,26.82
2022-08-07T13:55:54.179Z,26.46
2022-08-07T14:01:00.053Z,26.23
2022-08-07T14:06:12.698Z,26.14
2022-08-07T14:11:17.526Z,25.86
2022-08-07T14:16:31.147Z,25.68
2022-08-07T14:22:03.489Z,25.60
2022-08-07T14:28:09.372Z,25.46
2022-08-07T14:32:54.545Z,25.34
2022-08-07T14:38:03.093Z,25.43
2022-08-07T14:43:57.699Z,26.35
2022-08-07T14:48:40.364Z,26.55
2022-08-07T14:54:09.516Z,27.36
2022-08-07T14:59:13.744Z,27.70
2022-08-07T15:04:33.588Z,27.15
2022-08-07T15:15:21.261Z,26.67
2022-08-07T15:20:35.834Z,27.35
2022-08-07T15:25:57.581Z,26.67
2022-08-07T15:32:01.060Z,26.04
2022-08-07T15:37:04.379Z,25.64
2022-08-07T15:42:43.354Z,25.51
2022-08-07T15:47:59.968Z,25.39
2022-08-07T15:53:13.972Z,25.24
2022-08-07T15:58:21.015Z,25.10
2022-08-07T16:03:46.509Z,25.33
2022-08-07T16:08:49.705Z,25.08
2022-08-07T16:14:04.788Z,24.88
2022-08-07T16:19:42.229Z,24.76
2022-08-07T16:24:56.319Z,24.81
2022-08-07T16:30:31.043Z,24.90
2022-08-07T16:35:56.337Z,25.42
2022-08-07T16:41:04.405Z,25.42
2022-08-07T16:47:05.872Z,25.54
2022-08-07T16:52:51.301Z,25.86
2022-08-07T16:58:01.912Z,25.61
2022-08-07T17:03:09.520Z,25.35
2022-08-07T17:08:19.635Z,24.92
2022-08-07T17:14:18.013Z,24.94
2022-08-07T17:20:01.060Z,24.63
2022-08-07T17:25:47.729Z,24.44
2022-08-07T17:31:16.061Z,24.36
2022-08-07T17:36:26.118Z,24.16
2022-08-07T17:42:07.025Z,24.06
2022-08-07T17:47:38.655Z,23.88
2022-08-07T17:52:46.416Z,23.62
2022-08-07T17:58:01.983Z,23.43
2022-08-07T18:03:18.512Z,23.29
2022-08-07T18:09:00.628Z,23.13
2022-08-07T18:14:37.427Z,22.90
2022-08-07T18:21:03.600Z,22.70
2022-08-07T18:25:23.925Z,22.54
2022-08-07T18:31:00.484Z,22.26
2022-08-07T18:36:17.448Z,21.94
2022-08-07T18:41:53.875Z,21.66
2022-08-07T18:47:10.290Z,21.44
2022-08-07T18:52:54.972Z,21.19
2022-08-07T18:58:33.294Z,20.95
2022-08-07T19:03:55.511Z,20.75
2022-08-07T19:09:09.513Z,20.65
2022-08-07T19:14:52.835Z,20.37
2022-08-07T19:20:29.586Z,20.14
2022-08-07T19:26:23.727Z,19.82
2022-08-07T19:31:39.531Z,19.69
2022-08-07T19:36:43.727Z,19.56
2022-08-07T19:42:05.520Z,19.45
2022-08-07T19:47:11.878Z,19.16
2022-08-07T19:52:19.478Z,19.12
2022-08-07T19:58:01.976Z,18.93
2022-08-07T20:03:33.466Z,18.59
2022-08-07T20:08:34.015Z,18.41
2022-08-07T20:13:55.437Z,18.36
2022-08-07T20:18:59.232Z,18.30
2022-08-07T20:24:07.433Z,18.12
2022-08-07T20:29:48.997Z,18.05
2022-08-07T20:34:50.587Z,17.93
2022-08-07T20:40:02.411Z,17.91
2022-08-07T20:45:32.680Z,17.85
2022-08-07T20:50:30.819Z,17.77
2022-08-07T20:55:35.953Z,17.63
2022-08-07T21:00:46.082Z,17.45
2022-08-07T21:05:56.807Z,17.21
2022-08-07T21:11:01.662Z,17.17
2022-08-07T21:16:06.627Z,16.99
2022-08-07T21:21:10.168Z,16.98
2022-08-07T21:26:34.997Z,16.55
2022-08-07T21:32:46.542Z,16.57
2022-08-07T21:37:31.682Z,16.56
2022-08-07T21:42:59.539Z,16.50
